Time;durP1;ratioP1;P1;durP2;ratioP2;P2;SDS_P1;SDS_P2;PMS_P1;PMS_P2;Temp;Humidity;BMP_temperature;BMP_pressure;BME280_temperature;BME280_humidity;BME280_pressure;Samples;Min_cycle;Max_cycle;Signal;HPM_P1;HPM_P2
2023/10/01 00:00:46;;;;;;;13.40;6.05;;;14.10;99.90;;;;;;4958888;29;20147;-86
2023/10/01 00:03:17;;;;;;;13.48;5.78;;;14.10;99.90;;;;;;4958891;29;20035;-86
2023/10/01 00:05:44;;;;;;;13.85;5.90;;;14.10;99.90;;;;;;4946049;29;20535;-86
2023/10/01 00:08:14;;;;;;;13.77;6.20;;;14.10;99.90;;;;;;4949051;29;20043;-86
2023/10/01 00:10:44;;;;;;;13.68;6.10;;;14.10;99.90;;;;;;4962054;29;20039;-87
2023/10/01 00:13:11;;;;;;;14.73;6.07;;;14.10;99.90;;;;;;4974719;29;20508;-86
2023/10/01 00:15:38;;;;;;;12.80;6.00;;;14.20;99.90;;;;;;4958750;29;20061;-86
2023/10/01 00:18:07;;;;;;;13.25;6.15;;;14.20;99.90;;;;;;4958606;29;20039;-86
2023/10/01 00:20:34;;;;;;;14.90;5.72;;;14.20;99.90;;;;;;4958183;29;20157;-86
2023/10/01 00:23:02;;;;;;;16.55;6.68;;;14.20;99.90;;;;;;4955180;29;20183;-86
2023/10/01 00:25:30;;;;;;;12.85;6.57;;;14.20;99.90;;;;;;4973017;29;20074;-86
2023/10/01 00:27:58;;;;;;;11.85;6.10;;;14.10;99.90;;;;;;4958548;29;20050;-86
2023/10/01 00:30:25;;;;;;;17.45;6.95;;;14.20;99.90;;;;;;4952466;29;20050;-87
2023/10/01 00:32:55;;;;;;;14.65;6.88;;;14.10;99.90;;;;;;4967862;29;20055;-87
2023/10/01 00:35:22;;;;;;;15.57;6.32;;;14.10;99.90;;;;;;4958003;29;20035;-86
2023/10/01 00:37:48;;;;;;;15.55;6.80;;;14.10;99.90;;;;;;4945498;29;20043;-86
2023/10/01 00:40:17;;;;;;;14.40;6.80;;;14.20;99.90;;;;;;4974014;29;20074;-86
2023/10/01 00:42:44;;;;;;;13.85;6.97;;;14.20;99.90;;;;;;4956237;29;20099;-86
2023/10/01 00:45:13;;;;;;;16.33;6.63;;;14.10;99.90;;;;;;4960165;29;20050;-86
2023/10/01 00:47:46;;;;;;;13.20;6.65;;;14.10;99.90;;;;;;4954400;29;20050;-86
2023/10/01 00:50:21;;;;;;;15.18;6.60;;;14.20;99.90;;;;;;4973500;29;20044;-86
2023/10/01 00:52:49;;;;;;;17.38;6.60;;;14.20;99.90;;;;;;4955061;29;20473;-86
2023/10/01 00:55:18;;;;;;;15.98;6.97;;;14.10;99.90;;;;;;4963111;29;20035;-86
2023/10/01 00:57:44;;;;;;;19.35;7.38;;;14.10;99.90;;;;;;4944688;29;20089;-86
2023/10/01 01:00:15;;;;;;;19.02;7.45;;;14.10;99.90;;;;;;4958105;29;20047;-86
2023/10/01 01:03:09;;;;;;;15.57;6.93;;;14.10;99.90;;;;;;4974674;28;20107;-87
2023/10/01 01:05:35;;;;;;;18.25;7.43;;;14.10;99.90;;;;;;4965932;29;20580;-86
2023/10/01 01:08:07;;;;;;;14.20;7.45;;;14.10;99.90;;;;;;4965647;29;20050;-86
2023/10/01 01:10:40;;;;;;;15.10;7.18;;;14.10;99.90;;;;;;4972365;29;20036;-86
2023/10/01 01:13:07;;;;;;;19.83;7.38;;;14.10;99.90;;;;;;4957470;29;20476;-86
2023/10/01 01:15:35;;;;;;;14.52;7.22;;;14.00;99.90;;;;;;4950857;29;20036;-86
2023/10/01 01:18:07;;;;;;;17.10;6.93;;;14.00;99.90;;;;;;4966416;29;20484;-86
2023/10/01 01:20:37;;;;;;;14.05;7.10;;;14.00;99.90;;;;;;4962395;29;20043;-86
2023/10/01 01:23:05;;;;;;;15.32;7.18;;;14.00;99.90;;;;;;4952470;29;20065;-86
2023/10/01 01:25:32;;;;;;;14.07;6.97;;;14.00;99.90;;;;;;4944607;29;20043;-86
2023/10/01 01:27:59;;;;;;;14.50;7.28;;;13.90;99.90;;;;;;4957253;29;20043;-86
2023/10/01 01:30:27;;;;;;;16.45;6.85;;;14.00;99.90;;;;;;4972842;29;20047;-86
2023/10/01 01:32:55;;;;;;;15.63;6.68;;;14.00;99.90;;;;;;4956910;29;20118;-86
2023/10/01 01:35:27;;;;;;;15.98;6.80;;;14.00;99.90;;;;;;4957379;29;20035;-87
2023/10/01 01:38:01;;;;;;;17.55;7.43;;;14.00;99.90;;;;;;4944950;29;20110;-86
2023/10/01 01:40:40;;;;;;;15.68;6.93;;;14.00;99.90;;;;;;4956015;29;20089;-86
2023/10/01 01:43:15;;;;;;;19.08;7.30;;;14.00;99.90;;;;;;4944568;29;20054;-87
2023/10/01 01:45:47;;;;;;;;;;;14.00;99.90;;;;;;4957352;29;20043;-86
2023/10/01 01:51:00;;;;;;;16.67;7.18;;;14.00;99.90;;;;;;4972677;29;20047;-86
2023/10/01 01:53:34;;;;;;;15.05;7.30;;;14.00;99.90;;;;;;4956851;29;20086;-86
2023/10/01 01:56:13;;;;;;;19.95;8.00;;;14.00;99.90;;;;;;4972762;29;20039;-86
2023/10/01 01:58:41;;;;;;;16.30;7.13;;;14.00;99.90;;;;;;4944386;29;20047;-86
2023/10/01 02:03:44;;;;;;;18.27;7.15;;;13.90;99.90;;;;;;4961683;29;20447;-87
2023/10/01 02:06:13;;;;;;;17.02;7.45;;;13.90;99.90;;;;;;4944101;29;20035;-86
2023/10/01 02:08:50;;;;;;;15.40;7.03;;;14.00;99.90;;;;;;4949217;29;20044;-86
2023/10/01 02:11:19;;;;;;;15.90;7.07;;;13.80;99.90;;;;;;4951409;29;20126;-86
2023/10/01 02:13:54;;;;;;;17.90;6.95;;;13.80;99.90;;;;;;4965007;28;20047;-86
2023/10/01 02:19:17;;;;;;;14.45;7.60;;;13.60;99.90;;;;;;4972233;29;20080;-86
2023/10/01 02:21:49;;;;;;;15.10;7.70;;;13.60;99.90;;;;;;4944934;29;20075;-86
2023/10/01 02:24:37;;;;;;;21.45;7.57;;;13.60;99.90;;;;;;4961389;29;20032;-86
2023/10/01 02:27:04;;;;;;;18.20;7.75;;;13.70;99.90;;;;;;4956216;29;20118;-86
2023/10/01 02:29:32;;;;;;;15.82;7.57;;;13.60;99.90;;;;;;4955933;29;20460;-86
2023/10/01 02:32:04;;;;;;;15.55;7.75;;;13.60;99.90;;;;;;4953683;29;20036;-86
2023/10/01 02:34:31;;;;;;;13.52;7.63;;;13.60;99.90;;;;;;4956060;29;20095;-86
2023/10/01 02:36:58;;;;;;;19.17;8.07;;;13.60;99.90;;;;;;4948957;29;20040;-86
2023/10/01 02:39:27;;;;;;;18.33;8.05;;;13.60;99.90;;;;;;4953782;29;20054;-86
2023/10/01 02:44:39;;;;;;;14.25;7.47;;;13.60;99.90;;;;;;4971727;29;20441;-86
2023/10/01 02:47:16;;;;;;;19.35;8.35;;;13.70;99.90;;;;;;4944906;29;20046;-85
2023/10/01 02:49:52;;;;;;;14.95;8.15;;;13.70;99.90;;;;;;4971714;29;20044;-86
2023/10/01 02:52:32;;;;;;;17.90;8.55;;;13.70;99.90;;;;;;4972134;29;20118;-86
2023/10/01 02:55:00;;;;;;;15.90;8.02;;;13.70;99.90;;;;;;4946448;29;20051;-86
2023/10/01 02:57:27;;;;;;;20.23;7.82;;;13.70;99.90;;;;;;4966175;29;20520;-86
2023/10/01 03:02:39;;;;;;;17.77;8.30;;;13.70;99.90;;;;;;4971799;29;20886;-86
2023/10/01 03:05:08;;;;;;;17.80;8.27;;;13.80;99.90;;;;;;4955752;29;20061;-86
2023/10/01 03:07:45;;;;;;;16.67;8.05;;;13.80;99.90;;;;;;4971744;29;20084;-86
2023/10/01 03:10:12;;;;;;;15.65;8.02;;;13.80;99.90;;;;;;4952515;29;20172;-86
2023/10/01 03:12:40;;;;;;;16.05;7.72;;;13.80;99.90;;;;;;4962321;29;20515;-86
2023/10/01 03:17:39;;;;;;;19.20;8.52;;;13.80;99.90;;;;;;4971694;29;20496;-86
2023/10/01 03:23:01;;;;;;;17.30;8.68;;;13.80;99.90;;;;;;4946718;29;20051;-86
2023/10/01 03:25:40;;;;;;;16.20;8.07;;;13.80;99.90;;;;;;4948977;28;20043;-86
2023/10/01 03:28:26;;;;;;;16.42;7.88;;;13.90;99.90;;;;;;4959057;29;20055;-86
2023/10/01 03:31:06;;;;;;;15.88;7.78;;;13.80;99.90;;;;;;4959007;29;20122;-86
2023/10/01 03:33:38;;;;;;;12.27;7.93;;;13.90;99.90;;;;;;4959345;29;20091;-86
2023/10/01 03:36:12;;;;;;;16.60;7.88;;;13.90;99.90;;;;;;4947286;29;20035;-86
2023/10/01 03:38:40;;;;;;;12.98;8.23;;;13.90;99.90;;;;;;4963621;29;20171;-86
2023/10/01 03:41:52;;;;;;;14.90;8.77;;;13.90;99.90;;;;;;4973485;29;20054;-86
2023/10/01 03:44:08;;;;;;;18.33;8.55;;;13.90;99.90;;;;;;4981644;29;20106;-86
2023/10/01 03:46:45;;;;;;;16.65;8.40;;;13.90;99.90;;;;;;4971757;29;20051;-86
2023/10/01 03:51:59;;;;;;;14.63;8.33;;;13.90;99.90;;;;;;4974978;29;20058;-86
2023/10/01 03:54:52;;;;;;;16.13;8.88;;;13.90;99.90;;;;;;4958985;29;20511;-86
2023/10/01 03:57:17;;;;;;;13.82;8.13;;;14.00;99.90;;;;;;4962232;29;20055;-86
2023/10/01 03:59:52;;;;;;;19.15;8.63;;;14.00;99.90;;;;;;4958705;29;20087;-86
2023/10/01 04:02:56;;;;;;;17.98;8.18;;;14.00;99.90;;;;;;4971334;29;20050;-85
2023/10/01 04:05:22;;;;;;;16.25;8.40;;;14.00;99.90;;;;;;4987221;29;20050;-86
2023/10/01 04:07:50;;;;;;;14.60;8.15;;;14.00;99.90;;;;;;4959048;29;20039;-86
2023/10/01 04:10:35;;;;;;;16.27;8.90;;;14.00;99.90;;;;;;4958715;29;20039;-86
2023/10/01 04:13:12;;;;;;;16.88;8.27;;;14.00;99.90;;;;;;4955363;29;20055;-86
2023/10/01 04:16:15;;;;;;;16.63;8.48;;;14.00;99.90;;;;;;4979286;29;20046;-86
2023/10/01 04:18:37;;;;;;;19.80;8.48;;;14.00;99.90;;;;;;4960091;29;20051;-87
2023/10/01 04:23:32;;;;;;;17.73;8.35;;;14.10;99.90;;;;;;4967032;29;20051;-86
2023/10/01 04:26:13;;;;;;;17.02;8.63;;;14.00;99.90;;;;;;4955140;29;20086;-86
2023/10/01 04:28:44;;;;;;;16.77;8.80;;;14.10;99.90;;;;;;4967506;29;20050;-86
2023/10/01 04:31:15;;;;;;;16.45;8.73;;;14.10;99.90;;;;;;4963628;29;20043;-87
2023/10/01 04:33:51;;;;;;;16.83;9.15;;;14.10;99.90;;;;;;4945916;29;20054;-86
2023/10/01 04:36:19;;;;;;;14.77;8.65;;;14.10;99.90;;;;;;4956827;29;20070;-87
2023/10/01 04:39:00;;;;;;;18.48;8.73;;;14.10;99.90;;;;;;4975685;29;20051;-86
2023/10/01 04:41:26;;;;;;;15.82;8.60;;;14.10;99.90;;;;;;4955678;29;20055;-86
2023/10/01 04:43:55;;;;;;;16.27;8.20;;;14.20;99.90;;;;;;4958318;29;20043;-86
2023/10/01 04:46:24;;;;;;;17.50;8.80;;;14.10;99.90;;;;;;4957896;29;20042;-86
2023/10/01 04:48:52;;;;;;;15.55;8.32;;;14.10;99.90;;;;;;4973928;29;20051;-86
2023/10/01 04:51:21;;;;;;;17.65;8.43;;;14.10;99.90;;;;;;4957940;29;20057;-87
2023/10/01 04:53:49;;;;;;;18.38;9.07;;;14.10;99.90;;;;;;4957551;29;20381;-86
2023/10/01 04:56:22;;;;;;;17.25;7.82;;;14.20;99.90;;;;;;4957935;29;20035;-87
2023/10/01 04:58:56;;;;;;;14.13;8.32;;;14.20;99.90;;;;;;4951426;29;20070;-86
2023/10/01 05:01:24;;;;;;;15.65;8.60;;;14.20;99.90;;;;;;4967075;29;20055;-86
2023/10/01 05:03:52;;;;;;;16.77;8.77;;;14.20;99.90;;;;;;4970347;29;20126;-86
2023/10/01 05:06:19;;;;;;;16.95;8.40;;;14.20;99.90;;;;;;4954276;29;20052;-86
2023/10/01 05:08:56;;;;;;;16.08;8.15;;;14.20;99.90;;;;;;4970123;29;20043;-86
2023/10/01 05:11:29;;;;;;;17.02;7.82;;;14.30;99.90;;;;;;4962721;29;20056;-86
2023/10/01 05:13:58;;;;;;;17.88;8.00;;;14.20;99.90;;;;;;4945160;29;20039;-86
2023/10/01 05:16:31;;;;;;;14.98;8.15;;;14.20;99.90;;;;;;4957307;29;20043;-86
2023/10/01 05:19:10;;;;;;;15.93;7.45;;;14.20;99.90;;;;;;4954191;29;20475;-85
2023/10/01 05:21:46;;;;;;;16.40;7.90;;;14.20;99.90;;;;;;4949832;29;20039;-86
2023/10/01 05:24:36;;;;;;;19.42;8.05;;;14.20;99.90;;;;;;4946396;29;20118;-86
2023/10/01 05:27:08;;;;;;;16.58;8.30;;;14.20;99.90;;;;;;4957839;29;20459;-87
2023/10/01 05:29:42;;;;;;;15.85;7.40;;;14.20;99.90;;;;;;4954174;29;20075;-86
2023/10/01 05:32:12;;;;;;;16.00;7.80;;;14.20;99.90;;;;;;4945105;29;20440;-86
2023/10/01 05:34:42;;;;;;;13.75;7.10;;;14.30;99.90;;;;;;4953569;29;20087;-86
2023/10/01 05:37:09;;;;;;;18.60;8.13;;;14.20;99.90;;;;;;4950167;29;20047;-86
2023/10/01 05:39:55;;;;;;;12.88;7.07;;;14.30;99.90;;;;;;4959286;29;20047;-86
2023/10/01 05:42:25;;;;;;;14.82;8.13;;;14.20;99.90;;;;;;4984818;28;20047;-86
2023/10/01 05:44:54;;;;;;;14.07;7.35;;;14.20;99.90;;;;;;4956568;29;20047;-86
2023/10/01 05:47:22;;;;;;;22.73;8.00;;;14.30;99.90;;;;;;4937736;29;20063;-86
2023/10/01 05:49:53;;;;;;;17.33;8.45;;;14.20;99.90;;;;;;4949121;29;20514;-86
2023/10/01 05:52:24;;;;;;;15.52;8.23;;;14.20;99.90;;;;;;4958390;29;20448;-86
2023/10/01 05:54:53;;;;;;;16.15;8.25;;;14.20;99.90;;;;;;4939988;29;20069;-86
2023/10/01 05:57:21;;;;;;;18.42;8.30;;;14.20;99.90;;;;;;4946976;29;20051;-86
2023/10/01 06:00:00;;;;;;;19.17;8.23;;;14.20;99.90;;;;;;4956734;29;20111;-87
2023/10/01 06:02:41;;;;;;;14.32;8.00;;;14.20;99.90;;;;;;4956653;29;20043;-87
2023/10/01 06:05:25;;;;;;;16.83;9.13;;;14.20;99.90;;;;;;4964457;29;20039;-86
2023/10/01 06:07:54;;;;;;;13.93;7.72;;;14.20;99.90;;;;;;4966648;29;20075;-86
2023/10/01 06:10:26;;;;;;;14.07;7.80;;;14.20;99.90;;;;;;4960243;29;20032;-86
2023/10/01 06:12:56;;;;;;;14.43;8.07;;;14.20;99.90;;;;;;4950428;29;20043;-87
2023/10/01 06:15:29;;;;;;;17.05;8.13;;;14.20;99.90;;;;;;4972517;29;20484;-87
2023/10/01 06:17:58;;;;;;;19.52;8.50;;;14.20;99.90;;;;;;4956477;29;20435;-86
2023/10/01 06:20:26;;;;;;;17.65;8.45;;;14.10;99.90;;;;;;4941071;29;20043;-87
2023/10/01 06:22:55;;;;;;;16.48;8.27;;;14.40;99.90;;;;;;4964625;29;20083;-86
2023/10/01 06:25:37;;;;;;;15.35;7.63;;;14.10;99.90;;;;;;4954067;29;20114;-87
2023/10/01 06:28:08;;;;;;;17.23;8.23;;;14.10;99.90;;;;;;4969097;29;20110;-87
2023/10/01 06:30:40;;;;;;;16.88;8.25;;;14.10;99.90;;;;;;4953045;29;20058;-86
2023/10/01 06:33:24;;;;;;;21.27;8.35;;;14.00;99.90;;;;;;4949320;29;20059;-86
2023/10/01 06:38:41;;;;;;;14.75;8.32;;;14.00;99.90;;;;;;4949231;29;20131;-86
2023/10/01 06:41:13;;;;;;;13.77;7.85;;;14.10;99.90;;;;;;4926579;29;20437;-87
2023/10/01 06:43:54;;;;;;;18.10;8.38;;;14.00;99.90;;;;;;4939313;29;20500;-87
2023/10/01 06:46:28;;;;;;;15.35;7.95;;;14.00;99.90;;;;;;4940200;29;20118;-87
2023/10/01 06:48:58;;;;;;;17.38;8.05;;;14.00;99.90;;;;;;4925176;29;20051;-87
2023/10/01 06:51:26;;;;;;;21.48;7.78;;;14.00;99.90;;;;;;4939453;29;20154;-87
2023/10/01 06:54:05;;;;;;;12.13;6.90;;;14.00;99.90;;;;;;4936669;29;20487;-87
2023/10/01 06:56:35;;;;;;;17.77;7.53;;;14.10;99.90;;;;;;4952842;29;20477;-87
2023/10/01 07:01:35;;;;;;;17.38;7.97;;;14.10;99.90;;;;;;4942433;29;20119;-86
2023/10/01 07:04:04;;;;;;;17.30;8.30;;;14.10;99.90;;;;;;4946780;29;20551;-86
2023/10/01 07:06:34;;;;;;;13.82;7.45;;;14.10;99.90;;;;;;4931715;29;20051;-86
2023/10/01 07:09:00;;;;;;;14.98;8.13;;;14.20;99.90;;;;;;4936425;29;20039;-86
2023/10/01 07:11:28;;;;;;;16.77;7.57;;;14.20;99.90;;;;;;4952052;29;20401;-86
2023/10/01 07:13:56;;;;;;;17.75;7.47;;;14.20;99.90;;;;;;4934118;29;20117;-86
2023/10/01 07:16:44;;;;;;;16.65;7.50;;;14.30;99.90;;;;;;4939645;29;20064;-85
2023/10/01 07:19:13;;;;;;;16.58;7.20;;;14.30;99.90;;;;;;4952679;29;21040;-88
2023/10/01 07:21:41;;;;;;;13.52;6.90;;;14.40;99.90;;;;;;4947467;29;20052;-86
2023/10/01 07:24:11;;;;;;;16.17;7.72;;;14.40;99.90;;;;;;4952363;29;20047;-86
2023/10/01 07:26:41;;;;;;;14.68;7.70;;;14.50;99.90;;;;;;4939669;29;20406;-86
2023/10/01 07:29:08;;;;;;;15.85;7.57;;;14.50;99.90;;;;;;4933236;29;20044;-86
2023/10/01 07:31:38;;;;;;;11.95;7.50;;;14.50;99.90;;;;;;4948042;29;20059;-86
2023/10/01 07:34:16;;;;;;;19.17;7.97;;;14.40;99.90;;;;;;4964200;29;20055;-86
2023/10/01 07:36:46;;;;;;;15.40;7.25;;;14.50;99.90;;;;;;4954503;29;20090;-86
2023/10/01 07:39:16;;;;;;;16.63;7.82;;;14.50;99.90;;;;;;4955226;29;20039;-86
2023/10/01 07:41:44;;;;;;;20.25;6.88;;;14.50;99.90;;;;;;4939021;29;20047;-86
2023/10/01 07:44:12;;;;;;;17.30;7.18;;;14.50;99.90;;;;;;4935929;29;20062;-85
2023/10/01 07:46:38;;;;;;;18.13;7.03;;;14.60;99.90;;;;;;4949669;29;20560;-86
2023/10/01 07:49:05;;;;;;;21.48;7.30;;;14.60;99.90;;;;;;4949017;29;20166;-86
2023/10/01 07:51:36;;;;;;;17.25;7.60;;;14.60;99.90;;;;;;4951175;29;20628;-86
2023/10/01 07:54:09;;;;;;;20.58;7.50;;;14.70;99.90;;;;;;4964406;29;20058;-86
2023/10/01 07:56:50;;;;;;;16.77;7.25;;;14.70;99.90;;;;;;4955337;29;20385;-85
2023/10/01 07:59:28;;;;;;;18.27;7.28;;;14.80;99.90;;;;;;4954998;29;20518;-86
2023/10/01 08:03:28;;;;;;;15.52;7.13;;;14.80;99.90;;;;;;4954370;29;20043;-85
2023/10/01 08:07:17;;;;;;;19.55;7.40;;;14.90;99.90;;;;;;4964397;29;20047;-86
2023/10/01 08:09:54;;;;;;;15.50;7.07;;;14.90;99.90;;;;;;4960048;29;20095;-86
2023/10/01 08:12:29;;;;;;;18.48;7.47;;;15.00;99.90;;;;;;4936473;29;20052;-86
2023/10/01 08:17:47;;;;;;;18.50;7.32;;;15.00;99.90;;;;;;4955176;29;20039;-85
2023/10/01 08:20:17;;;;;;;19.35;6.63;;;15.00;99.90;;;;;;4957927;29;20523;-86
2023/10/01 08:22:44;;;;;;;18.92;7.55;;;15.00;99.90;;;;;;4954899;29;20440;-85
2023/10/01 08:25:12;;;;;;;15.77;6.93;;;15.00;99.90;;;;;;4971174;29;20054;-85
2023/10/01 08:28:26;;;;;;;14.60;7.03;;;15.50;99.90;;;;;;4948668;29;20043;-86
2023/10/01 08:30:38;;;;;;;17.50;6.93;;;15.00;99.90;;;;;;4973241;29;20047;-85
2023/10/01 08:33:19;;;;;;;17.65;6.85;;;15.10;99.90;;;;;;4952936;29;20092;-85
2023/10/01 08:36:12;;;;;;;18.90;7.88;;;15.20;99.90;;;;;;4929353;29;20051;-85
2023/10/01 08:38:47;;;;;;;19.20;7.25;;;15.10;99.90;;;;;;4936142;29;20052;-85
2023/10/01 08:41:32;;;;;;;17.70;7.50;;;15.30;99.90;;;;;;4950170;29;20497;-85
2023/10/01 08:44:09;;;;;;;15.52;6.88;;;15.30;99.90;;;;;;4927930;29;20048;-85
2023/10/01 08:46:39;;;;;;;15.70;7.20;;;15.30;99.90;;;;;;4942729;29;20103;-86
2023/10/01 08:52:25;;;;;;;13.23;6.57;;;15.30;99.90;;;;;;4916732;29;20451;-86
2023/10/01 08:54:55;;;;;;;15.27;6.90;;;15.30;99.90;;;;;;4941137;29;20044;-86
2023/10/01 08:57:37;;;;;;;15.43;7.22;;;15.30;99.90;;;;;;4922907;29;20046;-86
2023/10/01 09:00:17;;;;;;;14.38;7.00;;;15.40;99.90;;;;;;4954902;29;20036;-86
2023/10/01 09:02:55;;;;;;;17.95;6.72;;;15.40;99.90;;;;;;4938640;29;20032;-86
2023/10/01 09:05:25;;;;;;;17.05;7.13;;;15.50;99.90;;;;;;4951477;29;20048;-86
2023/10/01 09:08:14;;;;;;;23.77;7.25;;;15.60;99.90;;;;;;4935129;29;20063;-86
2023/10/01 09:10:52;;;;;;;15.25;6.82;;;15.60;99.90;;;;;;4931739;29;20143;-85
2023/10/01 09:13:22;;;;;;;20.08;7.82;;;15.70;99.90;;;;;;4933733;29;20043;-85
2023/10/01 09:15:55;;;;;;;16.23;7.10;;;15.70;99.90;;;;;;4938521;29;20043;-85
2023/10/01 09:18:23;;;;;;;14.32;7.28;;;15.80;99.90;;;;;;4934054;29;20063;-85
2023/10/01 09:21:08;;;;;;;14.10;6.15;;;15.90;99.90;;;;;;4941581;29;20524;-85
2023/10/01 09:23:59;;;;;;;19.47;7.13;;;15.90;99.90;;;;;;4931163;29;20071;-85
2023/10/01 09:26:39;;;;;;;18.58;6.88;;;15.90;99.90;;;;;;4946942;29;20291;-85
2023/10/01 09:29:23;;;;;;;18.13;7.32;;;15.90;99.90;;;;;;4920425;29;20055;-85
2023/10/01 09:31:52;;;;;;;13.43;6.70;;;15.90;99.90;;;;;;4935922;29;20127;-86
2023/10/01 09:34:31;;;;;;;18.40;6.72;;;16.10;99.90;;;;;;4938104;29;20079;-85
2023/10/01 09:37:33;;;;;;;14.23;6.28;;;16.10;99.90;;;;;;4966028;29;20094;-85
2023/10/01 09:40:52;;;;;;;14.55;6.68;;;16.40;99.90;;;;;;4952641;29;20509;-86
2023/10/01 09:43:03;;;;;;;18.63;6.70;;;16.50;99.90;;;;;;4971748;28;20488;-85
2023/10/01 09:45:37;;;;;;;17.63;7.13;;;16.70;99.90;;;;;;4964108;29;20043;-85
2023/10/01 09:48:07;;;;;;;16.50;6.70;;;16.80;99.90;;;;;;4956948;29;20086;-85
2023/10/01 09:50:44;;;;;;;14.88;6.35;;;16.90;99.90;;;;;;4956317;29;20130;-85
2023/10/01 09:53:31;;;;;;;17.33;6.55;;;17.00;99.90;;;;;;4956533;29;20063;-85
2023/10/01 09:56:00;;;;;;;16.10;6.70;;;17.20;99.90;;;;;;4952996;29;20118;-85
2023/10/01 09:58:28;;;;;;;13.85;5.97;;;17.20;99.90;;;;;;4972390;29;20400;-85
2023/10/01 10:01:00;;;;;;;14.43;5.47;;;17.30;99.90;;;;;;4938180;29;20532;-85
2023/10/01 10:03:37;;;;;;;16.27;6.65;;;17.30;99.90;;;;;;4965996;29;20057;-85
2023/10/01 10:06:06;;;;;;;14.27;6.13;;;17.30;99.90;;;;;;4961127;29;20105;-85
2023/10/01 10:08:34;;;;;;;13.90;5.88;;;17.30;99.90;;;;;;4944023;29;20412;-85
2023/10/01 10:11:05;;;;;;;15.73;6.18;;;17.40;99.90;;;;;;4947230;29;20046;-85
2023/10/01 10:13:45;;;;;;;16.05;5.97;;;17.50;99.90;;;;;;4965775;29;20046;-85
2023/10/01 10:16:32;;;;;;;13.23;5.82;;;17.50;99.90;;;;;;4949275;29;20122;-85
2023/10/01 10:19:09;;;;;;;14.70;6.13;;;17.50;99.90;;;;;;4946126;29;20122;-85
2023/10/01 10:24:46;;;;;;;19.85;6.55;;;17.60;99.90;;;;;;4952978;29;20500;-85
2023/10/01 10:27:33;;;;;;;13.85;6.30;;;17.80;99.90;;;;;;4952484;29;20043;-85
2023/10/01 10:30:05;;;;;;;14.52;5.93;;;17.90;99.90;;;;;;4951999;29;20130;-85
2023/10/01 10:32:47;;;;;;;14.07;5.63;;;18.10;99.90;;;;;;4952529;29;20050;-85
2023/10/01 10:35:16;;;;;;;13.50;6.13;;;18.20;99.90;;;;;;4933469;29;20060;-85
2023/10/01 10:37:55;;;;;;;14.00;5.72;;;18.50;99.90;;;;;;4930532;29;20409;-85
2023/10/01 10:40:23;;;;;;;15.02;6.28;;;18.70;99.90;;;;;;4937075;29;20699;-85
2023/10/01 10:42:57;;;;;;;15.88;6.07;;;19.00;99.90;;;;;;4936798;29;20051;-85
2023/10/01 10:45:35;;;;;;;16.05;5.88;;;19.10;99.90;;;;;;4936710;29;20436;-85
2023/10/01 10:48:03;;;;;;;17.20;6.38;;;19.30;99.90;;;;;;4949310;29;20122;-84
2023/10/01 10:50:39;;;;;;;17.67;5.63;;;19.30;99.90;;;;;;4945330;29;20040;-85
2023/10/01 10:53:15;;;;;;;13.13;5.95;;;19.30;99.90;;;;;;4918065;29;20042;-85
2023/10/01 10:55:51;;;;;;;16.58;6.10;;;19.50;99.90;;;;;;4930641;29;20042;-85
2023/10/01 10:58:19;;;;;;;18.70;6.03;;;19.50;99.90;;;;;;4927553;29;20504;-85
2023/10/01 11:00:55;;;;;;;15.43;5.65;;;19.50;99.90;;;;;;4936358;29;20452;-85
2023/10/01 11:03:43;;;;;;;;;;;19.50;99.90;;;;;;4937473;29;20050;-85
2023/10/01 11:06:17;;;;;;;14.07;5.80;;;19.40;99.90;;;;;;4934316;29;19925;-85
2023/10/01 11:08:50;;;;;;;16.40;5.60;;;19.30;99.90;;;;;;4936681;29;20036;-85
2023/10/01 11:11:43;;;;;;;15.90;5.80;;;19.20;99.90;;;;;;4925348;29;20143;-85
2023/10/01 11:14:15;;;;;;;14.18;5.20;;;19.20;99.90;;;;;;4930890;29;20055;-85
2023/10/01 11:16:46;;;;;;;13.18;5.88;;;19.20;99.90;;;;;;4936270;29;20036;-85
2023/10/01 11:19:16;;;;;;;15.88;5.30;;;19.20;99.90;;;;;;4936392;29;20078;-85
2023/10/01 11:22:00;;;;;;;15.77;5.65;;;19.20;99.90;;;;;;4934034;29;20130;-85
2023/10/01 11:24:34;;;;;;;16.50;5.47;;;19.20;99.90;;;;;;4936892;29;20086;-85
2023/10/01 11:27:25;;;;;;;16.88;5.57;;;19.10;99.90;;;;;;4936050;29;20055;-85
2023/10/01 11:30:00;;;;;;;15.13;5.30;;;19.10;99.90;;;;;;4934631;29;20040;-85
2023/10/01 11:32:57;;;;;;;15.33;5.97;;;19.20;99.90;;;;;;4927722;29;20063;-85
2023/10/01 11:35:35;;;;;;;13.57;5.22;;;19.20;99.90;;;;;;4936499;29;20071;-85
2023/10/01 11:38:13;;;;;;;14.57;5.78;;;19.30;99.90;;;;;;4967410;29;20039;-85
2023/10/01 11:43:27;;;;;;;15.95;5.47;;;19.40;99.90;;;;;;4967484;29;20043;-85
2023/10/01 11:46:21;;;;;;;14.10;5.38;;;19.50;99.90;;;;;;4949971;29;20039;-85
2023/10/01 11:48:56;;;;;;;14.10;5.38;;;19.50;99.90;;;;;;4957905;29;20043;-85
2023/10/01 11:51:29;;;;;;;14.23;5.57;;;19.50;99.90;;;;;;4974569;29;20045;-85
2023/10/01 11:54:09;;;;;;;13.50;5.65;;;19.50;99.90;;;;;;4964449;29;20087;-85
2023/10/01 11:56:38;;;;;;;13.90;5.45;;;19.50;99.90;;;;;;4949103;29;20083;-85
2023/10/01 11:59:09;;;;;;;13.52;5.32;;;19.60;99.90;;;;;;4952913;29;20043;-85
2023/10/01 12:01:47;;;;;;;13.43;5.65;;;19.50;99.90;;;;;;4947399;29;20039;-85
2023/10/01 12:04:21;;;;;;;13.20;5.10;;;19.50;99.90;;;;;;4961881;29;20102;-85
2023/10/01 12:06:50;;;;;;;16.83;5.78;;;19.60;99.90;;;;;;4966814;29;20044;-85
2023/10/01 12:09:18;;;;;;;14.25;5.40;;;19.60;99.90;;;;;;4974556;29;20070;-85
2023/10/01 12:12:03;;;;;;;17.40;6.10;;;19.60;99.90;;;;;;4957952;29;20063;-85
2023/10/01 12:14:52;;;;;;;14.02;6.00;;;19.60;99.90;;;;;;4974871;29;20484;-85
2023/10/01 12:17:26;;;;;;;16.42;6.13;;;19.60;99.90;;;;;;4950775;29;20067;-85
2023/10/01 12:19:55;;;;;;;13.93;5.45;;;19.50;99.90;;;;;;4986577;29;20040;-85
2023/10/01 12:22:24;;;;;;;13.98;5.38;;;19.50;99.90;;;;;;4958731;29;20046;-85
2023/10/01 12:24:58;;;;;;;15.98;5.97;;;19.50;99.90;;;;;;4946417;29;20613;-85
2023/10/01 12:27:45;;;;;;;14.48;6.45;;;19.50;99.90;;;;;;4958468;29;20035;-85
2023/10/01 12:30:27;;;;;;;14.27;5.80;;;19.50;99.90;;;;;;4954992;29;20052;-85
2023/10/01 12:32:56;;;;;;;14.23;5.60;;;19.50;99.90;;;;;;4951936;29;20038;-85
2023/10/01 12:35:28;;;;;;;12.13;5.28;;;19.60;99.90;;;;;;4955171;29;20036;-85
2023/10/01 12:38:10;;;;;;;12.35;5.53;;;19.60;99.90;;;;;;4952845;29;20385;-85
2023/10/01 12:40:37;;;;;;;15.30;5.80;;;19.60;99.90;;;;;;4973893;29;20101;-85
2023/10/01 12:45:54;;;;;;;14.57;5.80;;;19.70;99.90;;;;;;4973673;29;20047;-85
2023/10/01 12:48:21;;;;;;;13.48;5.57;;;19.70;99.90;;;;;;4957828;29;20053;-85
2023/10/01 12:51:00;;;;;;;15.20;5.57;;;19.70;99.90;;;;;;4957784;29;20491;-84
2023/10/01 12:53:27;;;;;;;15.98;6.03;;;19.70;99.90;;;;;;4957678;29;20073;-85
2023/10/01 12:55:54;;;;;;;15.32;5.65;;;19.80;99.90;;;;;;4953308;29;20035;-85
2023/10/01 12:58:35;;;;;;;12.38;5.13;;;19.80;99.90;;;;;;4945286;29;20119;-85
2023/10/01 13:01:23;;;;;;;14.95;5.72;;;19.80;99.90;;;;;;4954097;29;20047;-85
2023/10/01 13:03:53;;;;;;;15.18;5.78;;;19.90;99.90;;;;;;4951148;29;20043;-85
2023/10/01 13:06:20;;;;;;;13.10;4.97;;;19.90;99.90;;;;;;4954599;29;20063;-85
2023/10/01 13:08:46;;;;;;;15.43;5.53;;;20.00;99.90;;;;;;4970040;29;20047;-85
2023/10/01 13:14:17;;;;;;;14.20;5.47;;;20.10;99.90;;;;;;4972959;29;20047;-85
2023/10/01 13:16:50;;;;;;;13.98;5.32;;;20.20;99.90;;;;;;4958044;29;20043;-85
2023/10/01 13:19:23;;;;;;;13.82;5.93;;;20.20;99.90;;;;;;4961299;29;20091;-85
2023/10/01 13:21:49;;;;;;;14.63;5.50;;;20.20;99.90;;;;;;4953910;29;20161;-85
2023/10/01 13:24:17;;;;;;;13.95;5.47;;;20.20;99.90;;;;;;4954718;29;20051;-85
2023/10/01 13:26:43;;;;;;;14.07;5.88;;;20.20;99.90;;;;;;4955013;29;20075;-85
2023/10/01 13:29:28;;;;;;;15.80;5.97;;;20.30;99.90;;;;;;4953676;29;20500;-85
2023/10/01 13:32:02;;;;;;;12.53;5.30;;;20.30;99.90;;;;;;4966306;29;20135;-85
2023/10/01 13:34:49;;;;;;;16.50;5.93;;;20.30;99.90;;;;;;4959689;29;20056;-85
2023/10/01 14:10:16;;;;;;;16.63;5.60;;;20.20;99.90;;;;;;4971251;29;20051;-85
2023/10/01 14:12:54;;;;;;;17.38;6.80;;;20.20;99.90;;;;;;4956492;29;20540;-85
2023/10/01 14:15:23;;;;;;;15.93;6.25;;;20.20;99.90;;;;;;4941790;29;20408;-85
2023/10/01 14:17:54;;;;;;;15.20;5.55;;;20.20;99.90;;;;;;4952666;29;20063;-86
2023/10/01 14:21:12;;;;;;;12.95;5.70;;;20.20;99.90;;;;;;4966255;29;20039;-86
2023/10/01 14:23:28;;;;;;;13.38;6.07;;;20.20;99.90;;;;;;4970558;29;20142;-86
2023/10/01 14:26:43;;;;;;;15.05;5.47;;;20.30;99.90;;;;;;4958524;29;20050;-86
2023/10/01 14:28:45;;;;;;;12.18;5.55;;;20.30;99.90;;;;;;4950424;29;20090;-86
2023/10/01 14:31:12;;;;;;;14.68;6.45;;;20.30;99.90;;;;;;4952801;29;20043;-86
2023/10/01 14:33:42;;;;;;;14.77;5.88;;;20.30;99.90;;;;;;4955594;29;20138;-86